Ashton, West Virginia
Current Conditions -  °F | °C
As of 3:35 PM on Saturday 25 Oct 2014 (Local Time) from K3I2 Reporting Station
Overcast Overcast  
Wind Chill: 68°   Ceiling: 3200
Heat Index: 68°   Visibility: 10mi
Dew Point: 52°   Wind: 10mph
Humidity: 56%   Direction: 230°SW
Pressure: 29.92"   Gusts: 17mph
Location:  38.62°N, 82.16°W
Report Text: K3I2 251935Z AUTO 23009G15KT 10SM OVC032 20/11 A2992 RMK AO2
Loading
Personal Weather Stations






























Interactive Weather Map New forecast layout! Learn more

10-Day Weather Forecast

Advertisements
Track Severe Weather on mobile